KBJJ/BJJ METAR and TAF weather

Enter ICAO airport designator
Station Type Date Time Source
KBJJ METAR 2021/09/27 06:56 UTC NOAA

KBJJ 270656Z AUTO 22007KT 10SM CLR 14/08 A3000 RMK AO2 SLP153 T01440083


Station Type Date Time Source
KBJJ Decoded METAR 2021/09/27 06:56 UTC NOAA

WOOSTER WAYNE COUNTY AIRPORT, OH, United States (KBJJ) 40-52N 81-53W 343M
Sep 27, 2021 - 02:56 AM EDT / 2021.09.27 0656 UTC
Wind: from the SW (220 degrees) at 8 MPH (7 KT):0
Visibility: 10 mile(s):0
Sky conditions: clear
Temperature: 57.9 F (14.4 C)
Dew Point: 46.9 F (8.3 C)
Relative Humidity: 66%
Pressure (altimeter): 30 in. Hg (1015 hPa)
ob: KBJJ 270656Z AUTO 22007KT 10SM CLR 14/08 A3000 RMK AO2 SLP153 T01440083
cycle: 7

Station Type Date Time Source
KBJJ TAF UTC NOAA

Error!

Example: see airport list